Portada
METAR-TAF:

METAR-TAF

Aeropuertos :

Aeropuerto Internacional de Sunan

Pionyang, Corea del Norte

latitud: 39-02N, longitud: 125-47E, altitud: 36 m

METAR: falta

Hora: 20:45 (12:15 UTC)

Pronóstico

El informe se hizo hace 7 horas y 55 minutos, a las 04:20 UTC
Pronóstico válido del 21 a las 06 UTC al 22 a las 06 UTC
Viento 10 kt del norte-noroeste
Visibilidad 10 km o más
Cielo nuboso a una altura de 2000 ft
Evolucionando progresivamente
del 21 a las 12 UTC al 21 a las 14 UTC
Viento 6 kt del noreste
Visibilidad 10 km o más
sin nubes por debajo de 1500 m y sin presencia de cumulonimbus.

TAF: ZKPY 210420Z 2106/2206 33005MPS 9999 BKN020 TX29/2106Z TN19/2121Z BECMG 2112/2114 04003MPS CAVOK

Observaciones y pronósticos meteorológicos de más de 4000 aeropuertos (mensajes METAR y TAF).

Los puntos amarillos y rojos representan las estaciones disponibles.

Ponga el ratón en el punto deseado para ver el nombre de la estación.

Haga clic para ver las observaciones y los pronósticos meteorológicos.

Para cambiar el mapa : haga clic en los botones verdes con una cruz de color negro para hacer un zoom, en el botón verde con un guión para alejar o en las flechas verdes para mapas adyacentes.


METAR-TAF: